createdAt,value
2019-02-26T00:03:04.749Z,"    0"
2019-02-26T00:08:02.457Z,"    0"
2019-02-26T00:12:57.490Z,"    0"
2019-02-26T00:17:53.315Z,"    0"
2019-02-26T00:22:48.760Z,"    0"
2019-02-26T00:27:44.435Z,"    0"
2019-02-26T00:32:40.546Z,"    0"
2019-02-26T00:37:37.051Z,"    0"
2019-02-26T00:42:34.251Z,"    0"
2019-02-26T00:47:33.882Z,"    0"
2019-02-26T00:52:30.464Z,"    0"
2019-02-26T00:57:27.320Z,"    0"
2019-02-26T01:02:25.121Z,"    0"
2019-02-26T01:07:21.363Z,"    0"
2019-02-26T01:12:18.344Z,"    0"
2019-02-26T01:17:14.842Z,"    0"
2019-02-26T01:22:11.268Z,"    0"
2019-02-26T01:27:08.465Z,"    0"
2019-02-26T01:32:03.784Z,"    0"
2019-02-26T01:37:00.909Z,"    0"
2019-02-26T01:41:58.824Z,"    0"
2019-02-26T01:46:55.623Z,"    0"
2019-02-26T01:51:53.937Z,"    0"
2019-02-26T01:56:50.891Z,"    0"
2019-02-26T02:01:49.634Z,"    0"
2019-02-26T02:06:45.942Z,"    0"
2019-02-26T02:11:41.811Z,"    0"
2019-02-26T02:16:37.314Z,"    0"
2019-02-26T02:21:33.812Z,"    0"
2019-02-26T02:26:30.611Z,"    0"
2019-02-26T02:31:31.120Z,"    0"
2019-02-26T02:36:27.403Z,"    0"
2019-02-26T02:41:22.603Z,"    0"
2019-02-26T02:46:18.134Z,"    0"
2019-02-26T02:51:13.779Z,"    0"
2019-02-26T02:56:10.550Z,"    0"
2019-02-26T03:01:07.149Z,"    0"
2019-02-26T03:06:06.495Z,"    0"
2019-02-26T03:11:01.429Z,"    0"
2019-02-26T03:15:59.264Z,"    0"
2019-02-26T03:20:56.691Z,"    0"
2019-02-26T03:25:55.187Z,"    0"
2019-02-26T03:30:50.310Z,"    0"
2019-02-26T03:35:45.876Z,"    0"
2019-02-26T03:40:41.959Z,"    0"
2019-02-26T03:45:37.596Z,"    0"
2019-02-26T03:50:33.328Z,"    0"
2019-02-26T03:55:31.707Z,"    0"
2019-02-26T04:00:27.884Z,"    0"
2019-02-26T04:05:24.498Z,"    0"
2019-02-26T04:10:19.923Z,"    0"
2019-02-26T04:15:15.457Z,"    0"
2019-02-26T04:20:12.617Z,"    0"
2019-02-26T04:25:09.279Z,"    0"
2019-02-26T04:30:06.287Z,"    0"
2019-02-26T04:35:04.155Z,"    0"
2019-02-26T04:40:01.465Z,"    0"
2019-02-26T04:45:01.226Z,"    0"
2019-02-26T04:50:00.671Z,"    0"
2019-02-26T04:54:57.840Z,"    0"
2019-02-26T04:59:55.469Z,"    0"
2019-02-26T05:04:50.955Z,"    0"
2019-02-26T05:09:47.536Z,"    0"
2019-02-26T05:14:44.797Z,"    0"
2019-02-26T05:19:43.377Z,"    0"
2019-02-26T05:24:42.423Z,"    0"
2019-02-26T05:29:40.974Z,"    0"
2019-02-26T05:34:39.848Z,"    0"
2019-02-26T05:39:36.446Z,"    0"
2019-02-26T05:44:31.920Z,"    0"
2019-02-26T05:49:31.558Z,"    0"
2019-02-26T05:54:29.218Z,"    0"
2019-02-26T05:59:23.996Z,"    0"
2019-02-26T06:04:20.681Z,"    0"
2019-02-26T06:09:16.371Z,"    0"
2019-02-26T06:14:12.646Z,"    0"
2019-02-26T06:19:10.914Z,"    0"
2019-02-26T06:24:06.201Z,"    5"
2019-02-26T06:29:03.036Z,"   10"
2019-02-26T06:34:01.660Z,"   15"
2019-02-26T06:38:58.869Z,"   15"
2019-02-26T06:43:55.626Z,"   20"
2019-02-26T06:48:52.257Z,"   25"
2019-02-26T06:53:49.795Z,"   30"
2019-02-26T06:58:47.430Z,"   35"
2019-02-26T07:03:42.637Z,"   35"
2019-02-26T07:08:38.612Z,"   40"
2019-02-26T07:13:36.182Z,"   50"
2019-02-26T07:18:31.584Z,"   60"
2019-02-26T07:23:29.310Z,"   60"
2019-02-26T07:28:26.847Z,"   65"
2019-02-26T07:33:22.241Z,"   75"
2019-02-26T07:38:18.941Z,"   75"
2019-02-26T07:43:17.914Z,"   85"
2019-02-26T07:48:18.598Z,"   80"
2019-02-26T09:57:52.091Z,"  270"
2019-02-26T10:02:47.166Z,"  210"
2019-02-26T10:07:44.527Z,"  290"
2019-02-26T10:12:40.652Z,"  145"
2019-02-26T10:17:39.986Z,"  235"
2019-02-26T10:22:38.010Z,"  425"
2019-02-26T10:27:36.131Z,"  250"
2019-02-26T10:32:33.716Z,"  410"
2019-02-26T10:37:31.314Z,"  395"
2019-02-26T10:42:27.208Z,"  370"
2019-02-26T10:47:25.082Z,"  460"
2019-02-26T10:52:23.873Z,"  560"
2019-02-26T10:57:20.383Z,"  355"
2019-02-26T11:02:17.793Z,"  490"
2019-02-26T11:07:16.360Z,"  525"
2019-02-26T11:12:12.895Z,"  345"
2019-02-26T11:17:09.915Z,"  430"
2019-02-26T11:22:06.922Z,"  545"
2019-02-26T11:27:04.115Z,"  795"
2019-02-26T11:32:01.657Z,"  665"
2019-02-26T11:37:00.768Z,"  610"
2019-02-26T11:42:00.770Z,"  650"
2019-02-26T11:46:56.608Z,"  500"
2019-02-26T11:51:52.100Z,"  600"
2019-02-26T11:56:49.869Z,"  500"
2019-02-26T12:01:47.027Z,"  220"
2019-02-26T12:06:43.595Z,"  205"
2019-02-26T12:11:40.336Z,"  370"
2019-02-26T12:16:35.670Z,"  345"
2019-02-26T12:21:32.301Z,"  340"
2019-02-26T12:26:30.212Z,"  505"
2019-02-26T12:31:28.428Z,"  270"
2019-02-26T12:36:26.632Z,"  205"
2019-02-26T12:41:25.500Z,"  515"
2019-02-26T12:46:23.890Z,"  290"
2019-02-26T12:51:20.035Z,"  245"
2019-02-26T12:56:17.082Z,"  385"
2019-02-26T13:01:12.884Z,"  265"
2019-02-26T13:06:11.901Z,"  320"
2019-02-26T13:11:11.764Z,"  305"
2019-02-26T13:16:07.996Z,"  300"
2019-02-26T13:21:08.943Z,"  275"
2019-02-26T13:26:04.635Z,"  330"
2019-02-26T13:31:04.960Z,"  125"
2019-02-26T13:36:04.845Z,"  215"
2019-02-26T13:41:24.357Z,"  255"
2019-02-26T13:46:00.940Z,"  295"
2019-02-26T13:50:56.668Z,"  175"
2019-02-26T13:55:52.561Z,"  335"
2019-02-26T14:00:48.695Z,"  200"
2019-02-26T14:05:45.290Z,"  405"
2019-02-26T14:10:41.511Z,"  400"
2019-02-26T14:15:37.490Z,"  380"
2019-02-26T14:20:34.400Z,"  220"
2019-02-26T14:25:29.564Z,"  120"
2019-02-26T14:30:25.496Z,"  120"
2019-02-26T14:35:23.020Z,"  110"
2019-02-26T14:40:19.081Z,"  105"
2019-02-26T14:45:14.251Z,"  100"
2019-02-26T14:50:10.033Z,"  100"
2019-02-26T14:55:06.413Z,"  100"
2019-02-26T15:00:02.267Z,"   95"
2019-02-26T15:04:58.136Z,"   95"
2019-02-26T15:09:53.768Z,"   90"
2019-02-26T15:14:49.665Z,"   90"
2019-02-26T15:19:49.625Z,"   90"
2019-02-26T15:24:45.601Z,"   85"
2019-02-26T15:29:41.120Z,"   85"
2019-02-26T15:34:37.127Z,"   70"
2019-02-26T15:39:33.801Z,"   65"
2019-02-26T15:44:30.349Z,"   65"
2019-02-26T15:49:25.737Z,"   60"
2019-02-26T15:54:21.666Z,"   55"
2019-02-26T15:59:17.513Z,"   55"
2019-02-26T16:04:13.245Z,"   50"
2019-02-26T16:09:09.961Z,"   45"
2019-02-26T16:14:05.475Z,"   45"
2019-02-26T16:19:01.330Z,"   40"
2019-02-26T16:23:58.626Z,"   35"
2019-02-26T16:28:56.471Z,"   30"
2019-02-26T16:33:51.937Z,"   25"
2019-02-26T16:38:50.736Z,"   20"
2019-02-26T16:43:47.289Z,"   20"
2019-02-26T16:48:42.607Z,"   15"
2019-02-26T16:53:39.191Z,"   10"
2019-02-26T16:58:35.616Z,"    5"
2019-02-26T17:03:34.051Z,"    5"
2019-02-26T17:08:30.746Z,"    0"
2019-02-26T17:13:25.997Z,"    0"
2019-02-26T17:18:21.664Z,"    0"
2019-02-26T17:23:18.800Z,"    0"
2019-02-26T17:28:15.805Z,"    0"
2019-02-26T17:33:14.562Z,"    0"
2019-02-26T17:38:12.852Z,"    0"
2019-02-26T17:43:10.500Z,"    0"
2019-02-26T17:48:06.484Z,"    0"
2019-02-26T17:53:02.172Z,"    0"
2019-02-26T17:57:57.948Z,"    0"
2019-02-26T18:02:53.555Z,"    0"
2019-02-26T18:07:50.775Z,"    0"
2019-02-26T18:12:46.628Z,"    0"
2019-02-26T18:17:42.174Z,"    0"
2019-02-26T18:22:38.481Z,"    0"
2019-02-26T18:27:34.417Z,"    0"
2019-02-26T18:32:30.050Z,"    0"
2019-02-26T18:37:26.149Z,"    0"
2019-02-26T18:42:22.098Z,"    0"
2019-02-26T18:47:18.062Z,"    0"
2019-02-26T18:52:13.898Z,"    0"
2019-02-26T18:57:11.504Z,"    0"
2019-02-26T19:02:07.452Z,"    0"
2019-02-26T19:07:05.218Z,"    0"
2019-02-26T19:12:00.383Z,"    0"
2019-02-26T19:16:56.086Z,"    0"
2019-02-26T19:21:54.105Z,"    0"
2019-02-26T19:26:49.976Z,"    0"
2019-02-26T19:31:46.809Z,"    0"
2019-02-26T19:36:45.456Z,"    0"
2019-02-26T19:41:40.848Z,"    0"
2019-02-26T19:46:36.387Z,"    0"
2019-02-26T19:51:32.481Z,"    0"
2019-02-26T19:56:29.075Z,"    0"
2019-02-26T20:01:25.855Z,"    0"
2019-02-26T20:06:23.562Z,"    0"
2019-02-26T20:11:22.832Z,"    0"
2019-02-26T20:16:18.251Z,"    0"
2019-02-26T20:21:13.666Z,"    0"
2019-02-26T20:26:10.635Z,"    0"
2019-02-26T20:31:05.863Z,"    0"
2019-02-26T20:36:01.495Z,"    0"
2019-02-26T20:40:57.360Z,"    0"
2019-02-26T20:45:53.978Z,"    0"
2019-02-26T20:50:53.459Z,"    0"
2019-02-26T20:55:52.571Z,"    0"
2019-02-26T21:00:48.308Z,"    0"
2019-02-26T21:05:44.741Z,"    0"
2019-02-26T21:10:40.530Z,"    0"
2019-02-26T21:15:36.208Z,"    0"
2019-02-26T21:20:31.811Z,"    0"
2019-02-26T21:25:28.682Z,"    0"
2019-02-26T21:30:26.466Z,"    0"
2019-02-26T21:35:21.466Z,"    0"
2019-02-26T21:40:17.227Z,"    0"
2019-02-26T21:45:16.192Z,"    0"
2019-02-26T21:50:10.898Z,"    0"
2019-02-26T21:55:07.594Z,"    0"
2019-02-26T22:00:05.495Z,"    0"
2019-02-26T22:05:05.089Z,"    0"
2019-02-26T22:10:00.002Z,"    0"
2019-02-26T22:14:55.931Z,"    0"
2019-02-26T22:19:52.428Z,"    0"
2019-02-26T22:24:47.885Z,"    0"
2019-02-26T22:29:47.919Z,"    0"
2019-02-26T22:34:42.932Z,"    0"
2019-02-26T22:39:38.481Z,"    0"
2019-02-26T22:44:34.270Z,"    0"
2019-02-26T22:49:31.382Z,"    0"
2019-02-26T22:54:26.875Z,"    0"
2019-02-26T22:59:22.516Z,"    0"
2019-02-26T23:04:19.673Z,"    0"
2019-02-26T23:09:17.645Z,"    0"
2019-02-26T23:14:13.745Z,"    0"
2019-02-26T23:19:09.245Z,"    0"
2019-02-26T23:24:05.005Z,"    0"
2019-02-26T23:29:01.096Z,"    0"
2019-02-26T23:33:56.624Z,"    0"
2019-02-26T23:38:51.711Z,"    0"
2019-02-26T23:43:48.195Z,"    0"
2019-02-26T23:48:43.667Z,"    0"
2019-02-26T23:53:40.448Z,"    0"
2019-02-26T23:58:36.792Z,"    0"
